Private Wetterstation Sandau
Wetterdaten: Montag, 02.04.2012
Datum Zeit Temp. A. Feuchte A. Luftdruck Regen Wind Richtung Richtung Taupunkt Windchill
02.04.2012 00:02 6,1 C 80 % 1006,8 hPa 0,0 l/m 23,4 km/h (4 Bft) W-NW 292 2,9 C 2,1 C
02.04.2012 00:07 5,9 C 81 % 1007,0 hPa 0,0 l/m 10,4 km/h (2 Bft) W-NW 292 2,9 C 3,7 C
02.04.2012 00:12 5,9 C 82 % 1007,0 hPa 0,5 l/m 27,0 km/h (4 Bft) W 270 3,1 C 1,5 C
02.04.2012 00:17 5,8 C 82 % 1006,9 hPa 0,0 l/m 9,7 km/h (2 Bft) W-NW 292 3,0 C 3,7 C
02.04.2012 00:22 5,8 C 83 % 1006,9 hPa 0,0 l/m 8,3 km/h (2 Bft) W-SW 247 3,1 C 4,0 C
02.04.2012 00:27 5,8 C 83 % 1006,7 hPa 0,0 l/m 24,1 km/h (4 Bft) SW 225 3,1 C 1,6 C
02.04.2012 00:32 5,6 C 84 % 1006,8 hPa 0,0 l/m 15,8 km/h (3 Bft) NW 315 3,1 C 2,4 C
02.04.2012 00:37 5,6 C 84 % 1006,9 hPa 0,0 l/m 14,4 km/h (3 Bft) W-SW 247 3,1 C 2,6 C
02.04.2012 00:42 5,6 C 84 % 1006,7 hPa 0,0 l/m 15,5 km/h (3 Bft) W-NW 292 3,1 C 2,4 C
02.04.2012 00:47 5,6 C 84 % 1006,7 hPa 0,0 l/m 21,6 km/h (4 Bft) W-SW 247 3,1 C 1,6 C
02.04.2012 00:52 5,8 C 84 % 1006,8 hPa 0,0 l/m 19,1 km/h (3 Bft) W-NW 292 3,3 C 2,2 C
02.04.2012 00:57 5,8 C 84 % 1006,7 hPa 0,0 l/m 16,6 km/h (3 Bft) W 270 3,3 C 2,5 C
02.04.2012 01:02 5,8 C 84 % 1006,7 hPa 0,5 l/m 24,8 km/h (4 Bft) W 270 3,3 C 1,6 C
02.04.2012 01:07 5,8 C 84 % 1006,6 hPa 0,0 l/m 6,8 km/h (2 Bft) W 270 3,3 C 4,4 C
02.04.2012 01:12 5,8 C 84 % 1006,5 hPa 0,0 l/m 15,8 km/h (3 Bft) NW 315 3,3 C 2,6 C
02.04.2012 01:17 5,8 C 84 % 1006,5 hPa 0,0 l/m 18,7 km/h (3 Bft) W 270 3,3 C 2,2 C
02.04.2012 01:22 5,8 C 84 % 1006,6 hPa 0,0 l/m 26,3 km/h (4 Bft) W-NW 292 3,3 C 1,4 C
02.04.2012 01:27 5,8 C 85 % 1006,3 hPa 0,0 l/m 16,9 km/h (3 Bft) W-NW 292 3,5 C 2,5 C
02.04.2012 01:32 5,8 C 85 % 1006,4 hPa 0,0 l/m 9,7 km/h (2 Bft) W 270 3,5 C 3,7 C
02.04.2012 01:37 5,8 C 85 % 1006,3 hPa 0,0 l/m 12,2 km/h (2 Bft) W 270 3,5 C 3,2 C
02.04.2012 01:42 5,8 C 85 % 1006,4 hPa 0,0 l/m 12,2 km/h (2 Bft) W 270 3,5 C 3,2 C
02.04.2012 01:47 5,8 C 85 % 1006,2 hPa 0,0 l/m 14,8 km/h (3 Bft) W-NW 292 3,5 C 2,8 C
02.04.2012 01:52 5,9 C 85 % 1006,3 hPa 0,0 l/m 14,0 km/h (3 Bft) W 270 3,6 C 3,0 C
02.04.2012 01:57 5,9 C 85 % 1006,0 hPa 0,0 l/m 24,1 km/h (4 Bft) W 270 3,6 C 1,8 C
02.04.2012 02:02 5,9 C 85 % 1006,3 hPa 0,0 l/m 16,6 km/h (3 Bft) W-SW 247 3,6 C 2,6 C
02.04.2012 02:07 5,9 C 85 % 1006,1 hPa 0,0 l/m 27,7 km/h (4 Bft) W 270 3,6 C 1,4 C
02.04.2012 02:12 5,9 C 85 % 1006,0 hPa 0,0 l/m 20,9 km/h (4 Bft) W-SW 247 3,6 C 2,1 C
02.04.2012 02:17 5,9 C 85 % 1006,1 hPa 0,0 l/m 26,6 km/h (4 Bft) W-SW 247 3,6 C 1,5 C
02.04.2012 02:22 5,9 C 86 % 1006,1 hPa 0,0 l/m 5,8 km/h (2 Bft) W 270 3,7 C 4,8 C
02.04.2012 02:27 5,9 C 86 % 1006,2 hPa 0,0 l/m 15,5 km/h (3 Bft) W 270 3,7 C 2,8 C
02.04.2012 02:32 5,9 C 86 % 1006,2 hPa 0,0 l/m 16,9 km/h (3 Bft) W-NW 292 3,7 C 2,6 C
02.04.2012 02:37 5,9 C 86 % 1006,2 hPa 0,0 l/m 19,8 km/h (3 Bft) W 270 3,7 C 2,2 C
02.04.2012 02:42 5,9 C 86 % 1006,3 hPa 0,0 l/m 9,7 km/h (2 Bft) W-NW 292 3,7 C 3,8 C
02.04.2012 02:47 5,9 C 87 % 1006,3 hPa 0,0 l/m 16,6 km/h (3 Bft) W-SW 247 3,9 C 2,6 C
02.04.2012 02:52 5,9 C 87 % 1006,3 hPa 0,5 l/m 9,4 km/h (2 Bft) W-NW 292 3,9 C 3,9 C
02.04.2012 02:57 5,9 C 87 % 1006,2 hPa 0,0 l/m 15,8 km/h (3 Bft) W-NW 292 3,9 C 2,7 C
02.04.2012 03:02 5,9 C 87 % 1006,3 hPa 0,0 l/m 12,2 km/h (2 Bft) W-SW 247 3,9 C 3,3 C
02.04.2012 03:07 5,9 C 87 % 1006,3 hPa 0,5 l/m 20,9 km/h (4 Bft) W 270 3,9 C 2,1 C
02.04.2012 03:12 5,9 C 87 % 1006,4 hPa 0,0 l/m 20,5 km/h (4 Bft) W-NW 292 3,9 C 2,1 C
02.04.2012 03:17 5,9 C 87 % 1006,4 hPa 0,0 l/m 21,2 km/h (4 Bft) NW 315 3,9 C 2,1 C
02.04.2012 03:22 5,9 C 87 % 1006,4 hPa 0,0 l/m 10,8 km/h (2 Bft) W-NW 292 3,9 C 3,6 C
02.04.2012 03:27 5,9 C 87 % 1006,3 hPa 0,0 l/m 25,2 km/h (4 Bft) W 270 3,9 C 1,7 C
02.04.2012 03:32 5,9 C 88 % 1006,4 hPa 0,0 l/m 13,3 km/h (3 Bft) W 270 4,1 C 3,1 C
02.04.2012 03:37 5,9 C 87 % 1006,4 hPa 0,0 l/m 11,5 km/h (2 Bft) W-NW 292 3,9 C 3,4 C
02.04.2012 03:42 6,0 C 87 % 1006,4 hPa 0,0 l/m 19,4 km/h (3 Bft) W-SW 247 4,0 C 2,4 C
02.04.2012 03:47 6,1 C 87 % 1006,5 hPa 0,0 l/m 26,6 km/h (4 Bft) W 270 4,1 C 1,8 C
02.04.2012 03:52 6,1 C 87 % 1006,2 hPa 0,0 l/m 21,2 km/h (4 Bft) W-NW 292 4,1 C 2,3 C
02.04.2012 03:57 6,1 C 87 % 1006,3 hPa 0,0 l/m 18,0 km/h (3 Bft) W-NW 292 4,1 C 2,7 C
02.04.2012 04:02 6,1 C 87 % 1006,3 hPa 0,0 l/m 18,0 km/h (3 Bft) W-SW 247 4,1 C 2,7 C
02.04.2012 04:07 6,1 C 87 % 1006,3 hPa 0,0 l/m 8,6 km/h (2 Bft) W-SW 247 4,1 C 4,3 C
02.04.2012 04:12 6,1 C 87 % 1006,3 hPa 0,0 l/m 27,7 km/h (4 Bft) W 270 4,1 C 1,7 C
02.04.2012 04:17 6,1 C 87 % 1006,3 hPa 0,0 l/m 26,3 km/h (4 Bft) W 270 4,1 C 1,8 C
02.04.2012 04:22 6,1 C 87 % 1006,4 hPa 0,0 l/m 25,2 km/h (4 Bft) W-NW 292 4,1 C 1,9 C
02.04.2012 04:27 6,1 C 86 % 1006,4 hPa 0,0 l/m 11,9 km/h (2 Bft) W 270 3,9 C 3,6 C
02.04.2012 04:32 6,1 C 86 % 1006,4 hPa 0,0 l/m 15,8 km/h (3 Bft) W-NW 292 3,9 C 3,0 C
02.04.2012 04:37 5,9 C 85 % 1006,4 hPa 0,0 l/m 16,9 km/h (3 Bft) W-NW 292 3,6 C 2,6 C
02.04.2012 04:42 5,9 C 85 % 1006,5 hPa 0,0 l/m 27,0 km/h (4 Bft) NW 315 3,6 C 1,5 C
02.04.2012 04:47 5,9 C 84 % 1006,6 hPa 0,0 l/m 18,4 km/h (3 Bft) NW 315 3,4 C 2,4 C
02.04.2012 04:52 5,8 C 84 % 1006,7 hPa 0,0 l/m 35,6 km/h (5 Bft) NW 315 3,3 C 0,7 C
02.04.2012 04:57 5,8 C 84 % 1006,9 hPa 0,0 l/m 20,9 km/h (4 Bft) W-NW 292 3,3 C 2,0 C
02.04.2012 05:02 5,6 C 83 % 1006,7 hPa 0,0 l/m 12,6 km/h (3 Bft) N-NW 337 2,9 C 2,9 C
02.04.2012 05:07 5,6 C 82 % 1006,6 hPa 0,0 l/m 13,3 km/h (3 Bft) W-NW 292 2,8 C 2,8 C
02.04.2012 05:12 5,5 C 82 % 1006,8 hPa 0,0 l/m 14,0 km/h (3 Bft) W 270 2,7 C 2,5 C
02.04.2012 05:17 5,5 C 82 % 1006,7 hPa 0,0 l/m 15,8 km/h (3 Bft) N-NW 337 2,7 C 2,2 C
02.04.2012 05:22 5,4 C 81 % 1006,9 hPa 0,0 l/m 12,6 km/h (3 Bft) W-NW 292 2,4 C 2,6 C
02.04.2012 05:27 5,4 C 81 % 1006,9 hPa 0,0 l/m 13,7 km/h (3 Bft) N 360 2,4 C 2,4 C
02.04.2012 05:32 5,3 C 80 % 1006,9 hPa 0,0 l/m 16,2 km/h (3 Bft) NW 315 2,1 C 1,9 C
02.04.2012 05:37 5,2 C 80 % 1006,8 hPa 0,0 l/m 8,6 km/h (2 Bft) W-NW 292 2,0 C 3,2 C
02.04.2012 05:42 5,1 C 81 % 1007,0 hPa 0,0 l/m 16,9 km/h (3 Bft) N-NW 337 2,1 C 1,6 C
02.04.2012 05:47 5,1 C 81 % 1007,0 hPa 0,0 l/m 8,3 km/h (2 Bft) N 360 2,1 C 3,2 C
02.04.2012 05:52 5,1 C 81 % 1007,0 hPa 0,0 l/m 5,4 km/h (1 Bft) W-NW 292 2,1 C 4,0 C
02.04.2012 05:57 4,9 C 79 % 1007,2 hPa 0,0 l/m 5,4 km/h (1 Bft) W-NW 292 1,6 C 3,8 C
02.04.2012 06:02 4,9 C 78 % 1007,1 hPa 0,0 l/m 16,6 km/h (3 Bft) W 270 1,4 C 1,4 C
02.04.2012 06:07 4,9 C 77 % 1007,3 hPa 0,0 l/m 4,7 km/h (1 Bft) O 90 1,2 C 4,1 C
02.04.2012 06:12 4,8 C 76 % 1007,2 hPa 0,0 l/m 12,6 km/h (3 Bft) NW 315 0,9 C 1,9 C
02.04.2012 06:17 4,8 C 75 % 1007,2 hPa 0,0 l/m 6,8 km/h (2 Bft) W 270 0,8 C 3,2 C
02.04.2012 06:22 4,7 C 75 % 1007,3 hPa 0,0 l/m 14,4 km/h (3 Bft) W 270 0,7 C 1,5 C
02.04.2012 06:27 4,6 C 75 % 1007,3 hPa 0,0 l/m 2,2 km/h (1 Bft) W-NW 292 0,6 C 4,6 C
02.04.2012 06:32 4,6 C 75 % 1007,4 hPa 0,0 l/m 13,7 km/h (3 Bft) NW 315 0,6 C 1,5 C
02.04.2012 06:37 4,6 C 75 % 1007,5 hPa 0,0 l/m 5,8 km/h (2 Bft) W 270 0,6 C 3,3 C
02.04.2012 06:42 4,6 C 75 % 1007,3 hPa 0,0 l/m 4,3 km/h (1 Bft) N 360 0,6 C 4,6 C
02.04.2012 06:47 4,5 C 76 % 1007,5 hPa 0,0 l/m 10,4 km/h (2 Bft) N-NW 337 0,6 C 2,0 C
02.04.2012 06:52 4,5 C 76 % 1007,5 hPa 0,0 l/m 4,0 km/h (1 Bft) W 270 0,6 C 4,5 C
02.04.2012 06:57 4,5 C 77 % 1007,6 hPa 0,0 l/m 2,5 km/h (1 Bft) N-NO 22 0,8 C 4,5 C
02.04.2012 07:02 4,5 C 77 % 1007,7 hPa 0,0 l/m 23,4 km/h (4 Bft) NW 315 0,8 C 0,0 C
02.04.2012 07:07 4,5 C 77 % 1007,9 hPa 0,0 l/m 11,9 km/h (2 Bft) NW 315 0,8 C 1,7 C
02.04.2012 07:12 4,4 C 76 % 1007,8 hPa 0,0 l/m 18,4 km/h (3 Bft) NO 45 0,5 C 0,5 C
02.04.2012 07:17 4,3 C 74 % 1008,0 hPa 0,0 l/m 18,4 km/h (3 Bft) W 270 0,1 C 0,4 C
02.04.2012 07:22 4,3 C 74 % 1008,1 hPa 0,0 l/m 20,9 km/h (4 Bft) W-NW 292 0,1 C 0,1 C
02.04.2012 07:27 4,1 C 74 % 1008,1 hPa 0,0 l/m 8,3 km/h (2 Bft) NW 315 -0,1 C 2,0 C
02.04.2012 07:32 4,1 C 74 % 1008,2 hPa 0,0 l/m 14,4 km/h (3 Bft) W-NW 292 -0,1 C 0,7 C
02.04.2012 07:37 4,1 C 73 % 1008,4 hPa 0,0 l/m 9,7 km/h (2 Bft) N-NW 337 -0,3 C 1,7 C
02.04.2012 07:42 4,1 C 72 % 1008,3 hPa 0,0 l/m 16,6 km/h (3 Bft) W-NW 292 -0,5 C 0,4 C
02.04.2012 07:47 4,1 C 72 % 1008,5 hPa 0,0 l/m 11,2 km/h (2 Bft) W 270 -0,5 C 1,3 C
02.04.2012 07:52 4,1 C 71 % 1008,5 hPa 0,0 l/m 11,9 km/h (2 Bft) NW 315 -0,7 C 1,2 C
02.04.2012 07:57 4,2 C 70 % 1008,7 hPa 0,0 l/m 10,1 km/h (2 Bft) N-NW 337 -0,8 C 1,7 C
02.04.2012 08:02 4,3 C 70 % 1008,7 hPa 0,0 l/m 10,1 km/h (2 Bft) W-NW 292 -0,7 C 1,8 C
02.04.2012 08:07 4,3 C 70 % 1008,6 hPa 0,0 l/m 11,2 km/h (2 Bft) NO 45 -0,7 C 1,6 C
02.04.2012 08:12 4,3 C 69 % 1008,8 hPa 0,0 l/m 14,4 km/h (3 Bft) NW 315 -0,9 C 1,0 C
02.04.2012 08:17 4,3 C 70 % 1008,8 hPa 0,0 l/m 14,8 km/h (3 Bft) NW 315 -0,7 C 0,9 C
02.04.2012 08:22 4,4 C 69 % 1008,9 hPa 0,0 l/m 13,0 km/h (3 Bft) W-NW 292 -0,8 C 1,3 C
02.04.2012 08:27 4,4 C 70 % 1008,8 hPa 0,0 l/m 7,6 km/h (2 Bft) W 270 -0,6 C 2,5 C
02.04.2012 08:32 4,5 C 70 % 1009,1 hPa 0,0 l/m 5,8 km/h (2 Bft) W 270 -0,5 C 3,2 C
02.04.2012 08:37 4,5 C 70 % 1009,2 hPa 0,0 l/m 6,1 km/h (2 Bft) W-NW 292 -0,5 C 3,1 C
02.04.2012 08:42 4,6 C 69 % 1009,1 hPa 0,0 l/m 11,9 km/h (2 Bft) W-NW 292 -0,6 C 1,8 C
02.04.2012 08:47 4,7 C 69 % 1009,1 hPa 0,0 l/m 11,9 km/h (2 Bft) W 270 -0,5 C 1,9 C
02.04.2012 08:52 4,7 C 68 % 1009,2 hPa 0,0 l/m 11,9 km/h (2 Bft) N-NW 337 -0,7 C 1,9 C
02.04.2012 08:57 4,8 C 68 % 1009,2 hPa 0,0 l/m 14,0 km/h (3 Bft) W-NW 292 -0,6 C 1,7 C
02.04.2012 09:02 4,9 C 68 % 1009,1 hPa 0,0 l/m 14,8 km/h (3 Bft) W 270 -0,5 C 1,7 C
02.04.2012 09:07 4,9 C 68 % 1009,2 hPa 0,0 l/m 7,2 km/h (2 Bft) NW 315 -0,5 C 3,2 C
02.04.2012 09:12 5,0 C 68 % 1009,4 hPa 0,0 l/m 10,8 km/h (2 Bft) W-NW 292 -0,4 C 2,5 C
02.04.2012 09:17 5,1 C 67 % 1009,2 hPa 0,0 l/m 16,6 km/h (3 Bft) W-NW 292 -0,5 C 1,6 C
02.04.2012 09:22 5,1 C 67 % 1009,3 hPa 0,0 l/m 14,4 km/h (3 Bft) NW 315 -0,5 C 2,0 C
02.04.2012 09:27 5,2 C 67 % 1009,2 hPa 0,0 l/m 11,5 km/h (2 Bft) N 360 -0,4 C 2,6 C
02.04.2012 09:32 5,3 C 67 % 1009,3 hPa 0,0 l/m 9,7 km/h (2 Bft) NW 315 -0,3 C 3,1 C
02.04.2012 09:37 5,3 C 68 % 1009,3 hPa 0,0 l/m 18,4 km/h (3 Bft) W-NW 292 -0,1 C 1,6 C
02.04.2012 09:42 5,4 C 67 % 1009,4 hPa 0,0 l/m 7,2 km/h (2 Bft) W-NW 292 -0,2 C 3,8 C
02.04.2012 09:47 5,3 C 66 % 1009,4 hPa 0,0 l/m 18,7 km/h (3 Bft) N-NW 337 -0,5 C 1,6 C
02.04.2012 09:52 5,4 C 66 % 1009,6 hPa 0,0 l/m 13,7 km/h (3 Bft) NW 315 -0,4 C 2,4 C
02.04.2012 09:57 5,4 C 67 % 1009,5 hPa 0,0 l/m 14,8 km/h (3 Bft) W-NW 292 -0,2 C 2,3 C
02.04.2012 10:02 5,4 C 66 % 1009,6 hPa 0,0 l/m 5,0 km/h (1 Bft) NO 45 -0,4 C 4,5 C
02.04.2012 10:07 5,5 C 66 % 1009,8 hPa 0,0 l/m 11,5 km/h (2 Bft) W-NW 292 -0,3 C 3,0 C
02.04.2012 10:12 5,5 C 65 % 1009,7 hPa 0,0 l/m 10,4 km/h (2 Bft) W-NW 292 -0,5 C 3,2 C
02.04.2012 10:17 5,6 C 66 % 1009,7 hPa 0,0 l/m 4,7 km/h (1 Bft) N-NW 337 -0,2 C 4,9 C
02.04.2012 10:22 5,6 C 64 % 1009,7 hPa 0,0 l/m 7,2 km/h (2 Bft) S 180 -0,7 C 4,1 C
02.04.2012 10:27 5,6 C 64 % 1009,7 hPa 0,0 l/m 10,1 km/h (2 Bft) W-NW 292 -0,7 C 3,4 C
02.04.2012 10:32 5,6 C 63 % 1009,9 hPa 0,0 l/m 5,8 km/h (2 Bft) NO 45 -0,9 C 4,5 C
02.04.2012 10:37 5,5 C 63 % 1009,9 hPa 0,0 l/m 27,7 km/h (4 Bft) W 270 -1,0 C 0,9 C
02.04.2012 10:42 5,6 C 64 % 1009,9 hPa 0,0 l/m 8,3 km/h (2 Bft) W-NW 292 -0,7 C 3,8 C
02.04.2012 10:47 5,8 C 62 % 1009,9 hPa 0,0 l/m 7,6 km/h (2 Bft) W 270 -0,9 C 4,2 C
02.04.2012 10:52 5,8 C 62 % 1009,9 hPa 0,0 l/m 5,4 km/h (1 Bft) O-NO 67 -0,9 C 4,8 C
02.04.2012 10:57 5,8 C 62 % 1010,0 hPa 0,0 l/m 16,6 km/h (3 Bft) W-NW 292 -0,9 C 2,5 C
02.04.2012 11:02 5,9 C 61 % 1009,9 hPa 0,0 l/m 15,8 km/h (3 Bft) W-NW 292 -1,0 C 2,7 C
02.04.2012 11:07 6,0 C 62 % 1010,1 hPa 0,0 l/m 13,0 km/h (3 Bft) W-NW 292 -0,7 C 3,3 C
02.04.2012 11:12 6,2 C 62 % 1010,0 hPa 0,0 l/m 6,1 km/h (2 Bft) N-NW 337 -0,5 C 5,1 C
02.04.2012 11:17 6,3 C 62 % 1010,0 hPa 0,0 l/m 22,7 km/h (4 Bft) W-NW 292 -0,4 C 2,4 C
02.04.2012 11:22 6,3 C 60 % 1010,1 hPa 0,0 l/m 16,9 km/h (3 Bft) W-NW 292 -0,9 C 3,1 C
02.04.2012 11:27 6,4 C 59 % 1010,1 hPa 0,0 l/m 8,6 km/h (2 Bft) W-NW 292 -1,0 C 4,6 C
02.04.2012 11:32 6,4 C 59 % 1009,9 hPa 0,0 l/m 11,2 km/h (2 Bft) NW 315 -1,0 C 4,1 C
02.04.2012 11:37 6,4 C 59 % 1010,1 hPa 0,0 l/m 7,2 km/h (2 Bft) NW 315 -1,0 C 5,0 C
02.04.2012 11:42 6,4 C 59 % 1010,2 hPa 0,0 l/m 7,6 km/h (2 Bft) NW 315 -1,0 C 4,9 C
02.04.2012 11:47 6,5 C 59 % 1010,0 hPa 0,0 l/m 11,2 km/h (2 Bft) W-NW 292 -0,9 C 4,2 C
02.04.2012 11:52 6,6 C 59 % 1010,0 hPa 0,0 l/m 6,1 km/h (2 Bft) W 270 -0,8 C 5,5 C
02.04.2012 11:57 6,6 C 59 % 1010,0 hPa 0,0 l/m 7,2 km/h (2 Bft) NO 45 -0,8 C 5,2 C
02.04.2012 12:02 6,6 C 60 % 1009,9 hPa 0,0 l/m 16,9 km/h (3 Bft) N-NW 337 -0,6 C 3,5 C
02.04.2012 12:07 6,5 C 60 % 1010,0 hPa 0,0 l/m 7,6 km/h (2 Bft) W 270 -0,7 C 5,0 C
02.04.2012 12:12 6,7 C 60 % 1010,0 hPa 0,0 l/m 7,6 km/h (2 Bft) S-SW 202 -0,5 C 5,2 C
02.04.2012 12:17 6,7 C 59 % 1009,9 hPa 0,0 l/m 7,9 km/h (2 Bft) W-SW 247 -0,7 C 5,2 C
02.04.2012 12:22 6,5 C 59 % 1009,9 hPa 0,0 l/m 19,4 km/h (3 Bft) N-NW 337 -0,9 C 3,0 C
02.04.2012 12:27 6,3 C 59 % 1009,9 hPa 0,0 l/m 18,4 km/h (3 Bft) W-NW 292 -1,1 C 2,9 C
02.04.2012 12:32 6,3 C 60 % 1010,1 hPa 0,0 l/m 9,7 km/h (2 Bft) N-NW 337 -0,9 C 4,3 C
02.04.2012 12:37 6,4 C 60 % 1010,0 hPa 0,0 l/m 7,6 km/h (2 Bft) W-NW 292 -0,8 C 4,9 C
02.04.2012 12:42 6,4 C 61 % 1010,2 hPa 0,0 l/m 5,8 km/h (2 Bft) NW 315 -0,6 C 5,4 C
02.04.2012 12:47 6,6 C 61 % 1010,2 hPa 0,0 l/m 6,5 km/h (2 Bft) SO 135 -0,4 C 5,4 C
02.04.2012 12:52 6,7 C 60 % 1010,0 hPa 0,0 l/m 22,3 km/h (4 Bft) W-NW 292 -0,5 C 3,0 C
02.04.2012 12:57 6,8 C 60 % 1010,1 hPa 0,0 l/m 18,0 km/h (3 Bft) W-NW 292 -0,4 C 3,6 C
02.04.2012 13:02 6,9 C 60 % 1010,0 hPa 0,0 l/m 18,7 km/h (3 Bft) W-NW 292 -0,3 C 3,6 C
02.04.2012 13:07 7,0 C 60 % 1009,9 hPa 0,0 l/m 19,1 km/h (3 Bft) W-NW 292 -0,2 C 3,7 C
02.04.2012 13:12 7,2 C 60 % 1010,0 hPa 0,0 l/m 14,4 km/h (3 Bft) NW 315 -0,0 C 4,5 C
02.04.2012 13:17 7,2 C 60 % 1010,0 hPa 0,0 l/m 10,8 km/h (2 Bft) N-NW 337 -0,0 C 5,1 C
02.04.2012 13:22 7,2 C 59 % 1010,0 hPa 0,0 l/m 15,1 km/h (3 Bft) NW 315 -0,3 C 4,4 C
02.04.2012 13:27 7,1 C 58 % 1010,0 hPa 0,0 l/m 6,8 km/h (2 Bft) O-NO 67 -0,6 C 5,9 C
02.04.2012 13:32 7,0 C 58 % 1010,0 hPa 0,0 l/m 21,6 km/h (4 Bft) NW 315 -0,7 C 3,4 C
02.04.2012 13:37 6,9 C 59 % 1010,0 hPa 0,0 l/m 7,6 km/h (2 Bft) NW 315 -0,5 C 5,5 C
02.04.2012 13:42 6,9 C 59 % 1010,2 hPa 0,0 l/m 15,1 km/h (3 Bft) N-NW 337 -0,5 C 4,1 C
02.04.2012 13:47 6,9 C 60 % 1010,3 hPa 0,0 l/m 16,9 km/h (3 Bft) W-NW 292 -0,3 C 3,8 C
02.04.2012 13:52 6,9 C 60 % 1010,1 hPa 0,0 l/m 7,6 km/h (2 Bft) W-NW 292 -0,3 C 5,5 C
02.04.2012 13:57 6,9 C 60 % 1010,2 hPa 0,0 l/m 15,8 km/h (3 Bft) W 270 -0,3 C 4,0 C
02.04.2012 14:02 6,9 C 61 % 1010,2 hPa 0,0 l/m 12,2 km/h (2 Bft) W-SW 247 -0,1 C 4,5 C
02.04.2012 14:07 6,9 C 61 % 1010,2 hPa 0,0 l/m 10,8 km/h (2 Bft) W-NW 292 -0,1 C 4,8 C
02.04.2012 14:12 6,9 C 60 % 1010,2 hPa 0,0 l/m 16,2 km/h (3 Bft) W-NW 292 -0,3 C 3,9 C
02.04.2012 14:17 6,9 C 60 % 1010,2 hPa 0,0 l/m 2,9 km/h (1 Bft) O-NO 67 -0,3 C 6,9 C
02.04.2012 14:22 6,9 C 60 % 1010,1 hPa 0,0 l/m 6,1 km/h (2 Bft) NO 45 -0,3 C 5,9 C
02.04.2012 14:27 6,8 C 60 % 1010,1 hPa 0,0 l/m 7,9 km/h (2 Bft) N-NO 22 -0,4 C 5,3 C
02.04.2012 14:32 6,8 C 60 % 1010,1 hPa 0,0 l/m 4,3 km/h (1 Bft) W 270 -0,4 C 6,8 C
02.04.2012 14:37 6,9 C 61 % 1010,1 hPa 0,0 l/m 10,1 km/h (2 Bft) W-NW 292 -0,1 C 4,9 C
02.04.2012 14:42 7,1 C 61 % 1009,9 hPa 0,0 l/m 12,2 km/h (2 Bft) NW 315 0,1 C 4,8 C
02.04.2012 14:47 7,4 C 60 % 1009,9 hPa 0,0 l/m 15,5 km/h (3 Bft) W-NW 292 0,2 C 4,6 C
02.04.2012 14:52 7,6 C 60 % 1010,0 hPa 0,0 l/m 11,2 km/h (2 Bft) W-NW 292 0,3 C 5,5 C
02.04.2012 14:57 7,6 C 59 % 1009,9 hPa 0,0 l/m 17,3 km/h (3 Bft) W-NW 292 0,1 C 4,7 C
02.04.2012 15:02 7,8 C 59 % 1009,8 hPa 0,0 l/m 14,4 km/h (3 Bft) W-NW 292 0,3 C 5,3 C
02.04.2012 15:07 7,8 C 59 % 1009,8 hPa 0,0 l/m 14,8 km/h (3 Bft) W-NW 292 0,3 C 5,2 C
02.04.2012 15:12 7,9 C 58 % 1009,9 hPa 0,0 l/m 24,8 km/h (4 Bft) W-NW 292 0,2 C 4,3 C
02.04.2012 15:17 7,9 C 58 % 1009,7 hPa 0,0 l/m 17,6 km/h (3 Bft) NW 315 0,2 C 5,0 C
02.04.2012 15:22 7,9 C 58 % 1009,9 hPa 0,0 l/m 10,4 km/h (2 Bft) W-NW 292 0,2 C 6,0 C
02.04.2012 15:27 7,9 C 57 % 1009,9 hPa 0,0 l/m 10,1 km/h (2 Bft) W 270 -0,1 C 6,1 C
02.04.2012 15:32 7,9 C 58 % 1009,7 hPa 0,0 l/m 16,9 km/h (3 Bft) NW 315 0,2 C 5,1 C
02.04.2012 15:37 8,0 C 59 % 1009,8 hPa 0,0 l/m 3,6 km/h (1 Bft) NW 315 0,5 C 8,0 C
02.04.2012 15:42 8,1 C 58 % 1009,6 hPa 0,0 l/m 12,2 km/h (2 Bft) W 270 0,3 C 6,0 C
02.04.2012 15:47 8,1 C 58 % 1009,6 hPa 0,0 l/m 2,5 km/h (1 Bft) N-NW 337 0,3 C 8,1 C
02.04.2012 15:52 8,1 C 58 % 1009,5 hPa 0,0 l/m 18,0 km/h (3 Bft) NW 315 0,3 C 5,2 C
02.04.2012 15:57 8,3 C 58 % 1009,5 hPa 0,0 l/m 15,5 km/h (3 Bft) W-NW 292 0,5 C 5,8 C
02.04.2012 16:02 8,3 C 57 % 1009,4 hPa 0,0 l/m 10,8 km/h (2 Bft) NO 45 0,3 C 6,5 C
02.04.2012 16:07 8,4 C 57 % 1009,3 hPa 0,0 l/m 8,6 km/h (2 Bft) W 270 0,4 C 7,0 C
02.04.2012 16:12 8,3 C 58 % 1009,5 hPa 0,0 l/m 15,5 km/h (3 Bft) W 270 0,5 C 5,8 C
02.04.2012 16:17 8,3 C 58 % 1009,6 hPa 0,0 l/m 10,8 km/h (2 Bft) W 270 0,5 C 6,5 C
02.04.2012 16:22 8,2 C 58 % 1009,5 hPa 0,0 l/m 12,2 km/h (2 Bft) W-NW 292 0,4 C 6,1 C
02.04.2012 16:27 8,2 C 58 % 1009,2 hPa 0,0 l/m 20,5 km/h (4 Bft) W-NW 292 0,4 C 5,1 C
02.04.2012 16:32 8,4 C 58 % 1009,2 hPa 0,0 l/m 14,4 km/h (3 Bft) W-NW 292 0,6 C 6,0 C
02.04.2012 16:37 8,4 C 58 % 1009,3 hPa 0,0 l/m 8,6 km/h (2 Bft) W-NW 292 0,6 C 7,0 C
02.04.2012 16:42 8,3 C 58 % 1009,4 hPa 0,0 l/m 7,6 km/h (2 Bft) NW 315 0,5 C 7,1 C
02.04.2012 16:47 8,3 C 59 % 1009,3 hPa 0,0 l/m 24,1 km/h (4 Bft) W-NW 292 0,8 C 4,8 C
02.04.2012 16:52 8,1 C 59 % 1009,2 hPa 0,0 l/m 13,7 km/h (3 Bft) W-NW 292 0,6 C 5,8 C
02.04.2012 16:57 8,1 C 60 % 1009,3 hPa 0,0 l/m 3,6 km/h (1 Bft) N-NW 337 0,8 C 8,1 C
02.04.2012 17:02 7,9 C 60 % 1009,3 hPa 0,0 l/m 5,8 km/h (2 Bft) W-NW 292 0,6 C 7,1 C
02.04.2012 17:07 7,9 C 61 % 1009,2 hPa 0,0 l/m 13,7 km/h (3 Bft) W 270 0,9 C 5,5 C
02.04.2012 17:12 7,9 C 61 % 1009,2 hPa 0,0 l/m 16,9 km/h (3 Bft) W-NW 292 0,9 C 5,1 C
02.04.2012 17:17 7,8 C 61 % 1009,2 hPa 0,0 l/m 3,6 km/h (1 Bft) W-SW 247 0,8 C 7,8 C
02.04.2012 17:22 7,8 C 61 % 1009,2 hPa 0,0 l/m 14,0 km/h (3 Bft) W-NW 292 0,8 C 5,3 C
02.04.2012 17:27 7,8 C 61 % 1009,0 hPa 0,0 l/m 7,6 km/h (2 Bft) W 270 0,8 C 6,5 C
02.04.2012 17:32 7,8 C 61 % 1009,2 hPa 0,0 l/m 4,0 km/h (1 Bft) W 270 0,8 C 7,8 C
02.04.2012 17:37 7,8 C 61 % 1009,0 hPa 0,0 l/m 15,5 km/h (3 Bft) W 270 0,8 C 5,1 C
02.04.2012 17:42 7,8 C 61 % 1008,8 hPa 0,0 l/m 6,5 km/h (2 Bft) W 270 0,8 C 6,8 C
02.04.2012 17:47 7,9 C 62 % 1008,9 hPa 0,0 l/m 8,3 km/h (2 Bft) W 270 1,1 C 6,5 C
02.04.2012 17:52 7,9 C 62 % 1009,0 hPa 0,0 l/m 7,2 km/h (2 Bft) W 270 1,1 C 6,7 C
02.04.2012 17:57 7,9 C 62 % 1008,9 hPa 0,0 l/m 14,4 km/h (3 Bft) W-SW 247 1,1 C 5,4 C
02.04.2012 18:02 7,8 C 61 % 1009,0 hPa 0,0 l/m 10,4 km/h (2 Bft) NW 315 0,8 C 5,9 C
02.04.2012 18:07 7,8 C 61 % 1009,0 hPa 0,0 l/m 11,2 km/h (2 Bft) W 270 0,8 C 5,8 C
02.04.2012 18:12 7,7 C 61 % 1008,8 hPa 0,0 l/m 9,4 km/h (2 Bft) W-SW 247 0,7 C 6,0 C
02.04.2012 18:17 7,7 C 61 % 1008,8 hPa 0,0 l/m 10,8 km/h (2 Bft) W 270 0,7 C 5,7 C
02.04.2012 18:22 7,6 C 62 % 1008,9 hPa 0,0 l/m 6,5 km/h (2 Bft) W 270 0,8 C 6,6 C
02.04.2012 18:27 7,7 C 62 % 1008,9 hPa 0,0 l/m 9,0 km/h (2 Bft) W 270 0,9 C 6,1 C
02.04.2012 18:32 7,7 C 62 % 1008,8 hPa 0,0 l/m 8,6 km/h (2 Bft) W 270 0,9 C 6,2 C
02.04.2012 18:37 7,6 C 62 % 1008,8 hPa 0,0 l/m 7,6 km/h (2 Bft) W 270 0,8 C 6,3 C
02.04.2012 18:42 7,6 C 62 % 1008,7 hPa 0,0 l/m 10,4 km/h (2 Bft) W 270 0,8 C 5,7 C
02.04.2012 18:47 7,6 C 62 % 1008,7 hPa 0,0 l/m 6,8 km/h (2 Bft) NW 315 0,8 C 6,5 C
02.04.2012 18:52 7,5 C 63 % 1008,7 hPa 0,0 l/m 5,8 km/h (2 Bft) W-NW 292 0,9 C 6,7 C
02.04.2012 18:57 7,4 C 63 % 1008,7 hPa 0,0 l/m 4,7 km/h (1 Bft) W-NW 292 0,8 C 6,9 C
02.04.2012 19:02 7,4 C 63 % 1008,6 hPa 0,0 l/m 3,2 km/h (1 Bft) NW 315 0,8 C 7,4 C
02.04.2012 19:07 7,4 C 64 % 1008,8 hPa 0,0 l/m 0,0 km/h (0 Bft) W-NW 292 1,0 C 7,4 C
02.04.2012 19:12 7,3 C 64 % 1008,8 hPa 0,0 l/m 0,0 km/h (0 Bft) W-NW 292 1,0 C 7,3 C
02.04.2012 19:17 7,3 C 64 % 1008,8 hPa 0,0 l/m 4,7 km/h (1 Bft) W-NW 292 1,0 C 6,8 C
02.04.2012 19:22 7,2 C 64 % 1008,8 hPa 0,0 l/m 0,0 km/h (0 Bft) NW 315 0,9 C 7,2 C
02.04.2012 19:27 7,2 C 64 % 1008,7 hPa 0,0 l/m 0,0 km/h (0 Bft) N-NO 22 0,9 C 7,2 C
02.04.2012 19:32 7,1 C 64 % 1008,7 hPa 0,0 l/m 0,0 km/h (0 Bft) NW 315 0,8 C 7,1 C
02.04.2012 19:37 7,1 C 65 % 1008,7 hPa 0,0 l/m 1,1 km/h (1 Bft) W-NW 292 1,0 C 7,1 C
02.04.2012 19:42 7,1 C 66 % 1008,8 hPa 0,0 l/m 2,2 km/h (1 Bft) NW 315 1,2 C 7,1 C
02.04.2012 19:47 7,0 C 66 % 1008,7 hPa 0,0 l/m 2,2 km/h (1 Bft) N-NO 22 1,1 C 7,0 C
02.04.2012 19:52 6,9 C 66 % 1008,8 hPa 0,0 l/m 0,0 km/h (0 Bft) N-NW 337 1,0 C 6,9 C
02.04.2012 19:57 6,9 C 66 % 1008,7 hPa 0,0 l/m 0,0 km/h (0 Bft) NW 315 1,0 C 6,9 C
02.04.2012 20:02 6,9 C 67 % 1008,7 hPa 0,0 l/m 0,0 km/h (0 Bft) NW 315 1,2 C 6,9 C
02.04.2012 20:07 6,9 C 67 % 1008,8 hPa 0,0 l/m 0,0 km/h (0 Bft) NW 315 1,2 C 6,9 C
02.04.2012 20:12 6,9 C 67 % 1008,7 hPa 0,0 l/m 0,0 km/h (0 Bft) NW 315 1,2 C 6,9 C
02.04.2012 20:17 6,9 C 67 % 1008,8 hPa 0,0 l/m 0,0 km/h (0 Bft) NW 315 1,2 C 6,9 C
02.04.2012 20:22 6,9 C 67 % 1008,7 hPa 0,0 l/m 1,1 km/h (1 Bft) NW 315 1,2 C 6,9 C
02.04.2012 20:27 6,9 C 67 % 1008,7 hPa 0,0 l/m 0,0 km/h (0 Bft) W 270 1,2 C 6,9 C
02.04.2012 20:32 6,8 C 67 % 1008,8 hPa 0,0 l/m 1,4 km/h (1 Bft) W 270 1,1 C 6,8 C
02.04.2012 20:37 6,8 C 68 % 1008,8 hPa 0,0 l/m 0,0 km/h (0 Bft) W 270 1,3 C 6,8 C
02.04.2012 20:42 6,8 C 68 % 1008,8 hPa 0,0 l/m 0,0 km/h (0 Bft) W 270 1,3 C 6,8 C
02.04.2012 20:47 6,8 C 68 % 1008,8 hPa 0,0 l/m 1,8 km/h (1 Bft) W 270 1,3 C 6,8 C
02.04.2012 20:52 6,8 C 68 % 1008,9 hPa 0,0 l/m 0,0 km/h (0 Bft) W 270 1,3 C 6,8 C
02.04.2012 20:57 6,6 C 68 % 1008,9 hPa 0,0 l/m 0,0 km/h (0 Bft) W-NW 292 1,1 C 6,6 C
02.04.2012 21:02 6,5 C 68 % 1008,8 hPa 0,0 l/m 0,0 km/h (0 Bft) W-NW 292 1,0 C 6,5 C
02.04.2012 21:07 6,5 C 69 % 1008,9 hPa 0,0 l/m 0,0 km/h (0 Bft) W-NW 292 1,2 C 6,5 C
02.04.2012 21:12 6,4 C 69 % 1008,8 hPa 0,0 l/m 0,0 km/h (0 Bft) W-NW 292 1,1 C 6,4 C
02.04.2012 21:17 6,4 C 69 % 1009,0 hPa 0,0 l/m 0,0 km/h (0 Bft) W-NW 292 1,1 C 6,4 C
02.04.2012 21:22 6,4 C 70 % 1009,0 hPa 0,0 l/m 0,0 km/h (0 Bft) W-NW 292 1,3 C 6,4 C
02.04.2012 21:27 6,4 C 70 % 1008,9 hPa 0,0 l/m 0,0 km/h (0 Bft) W-NW 292 1,3 C 6,4 C
02.04.2012 21:32 6,4 C 70 % 1008,9 hPa 0,0 l/m 0,0 km/h (0 Bft) W-NW 292 1,3 C 6,4 C
02.04.2012 21:37 6,4 C 70 % 1009,0 hPa 0,0 l/m 0,0 km/h (0 Bft) W-NW 292 1,3 C 6,4 C
02.04.2012 21:42 6,4 C 70 % 1009,0 hPa 0,0 l/m 0,0 km/h (0 Bft) W-NW 292 1,3 C 6,4 C
02.04.2012 21:47 6,3 C 70 % 1009,1 hPa 0,0 l/m 0,0 km/h (0 Bft) W-NW 292 1,2 C 6,3 C
02.04.2012 21:52 6,2 C 70 % 1008,9 hPa 0,0 l/m 0,0 km/h (0 Bft) W-NW 292 1,1 C 6,2 C
02.04.2012 21:57 6,1 C 70 % 1009,0 hPa 0,0 l/m 0,0 km/h (0 Bft) W-NW 292 1,0 C 6,1 C
02.04.2012 22:02 6,1 C 71 % 1008,9 hPa 0,0 l/m 0,0 km/h (0 Bft) W-NW 292 1,2 C 6,1 C
02.04.2012 22:07 5,9 C 71 % 1008,9 hPa 0,0 l/m 0,0 km/h (0 Bft) W-NW 292 1,1 C 5,9 C
02.04.2012 22:12 5,9 C 72 % 1008,9 hPa 0,0 l/m 0,0 km/h (0 Bft) W-NW 292 1,2 C 5,9 C
02.04.2012 22:17 5,8 C 72 % 1009,1 hPa 0,0 l/m 0,0 km/h (0 Bft) W-NW 292 1,2 C 5,8 C
02.04.2012 22:22 5,8 C 72 % 1009,0 hPa 0,0 l/m 0,0 km/h (0 Bft) W-NW 292 1,2 C 5,8 C
02.04.2012 22:27 5,6 C 72 % 1008,9 hPa 0,0 l/m 0,0 km/h (0 Bft) W-NW 292 1,0 C 5,6 C
02.04.2012 22:32 5,6 C 73 % 1009,0 hPa 0,0 l/m 0,0 km/h (0 Bft) W-NW 292 1,2 C 5,6 C
02.04.2012 22:37 5,5 C 73 % 1008,8 hPa 0,0 l/m 0,0 km/h (0 Bft) W-NW 292 1,1 C 5,5 C
02.04.2012 22:42 5,5 C 73 % 1008,9 hPa 0,0 l/m 0,0 km/h (0 Bft) W-NW 292 1,1 C 5,5 C
02.04.2012 22:47 5,4 C 73 % 1009,0 hPa 0,0 l/m 0,0 km/h (0 Bft) W-NW 292 1,0 C 5,4 C
02.04.2012 22:52 5,4 C 73 % 1008,8 hPa 0,0 l/m 0,0 km/h (0 Bft) W-NW 292 1,0 C 5,4 C
02.04.2012 22:57 5,4 C 73 % 1008,9 hPa 0,0 l/m 0,0 km/h (0 Bft) W-NW 292 1,0 C 5,4 C
02.04.2012 23:02 5,3 C 73 % 1008,7 hPa 0,0 l/m 0,0 km/h (0 Bft) W-NW 292 0,9 C 5,3 C
02.04.2012 23:07 5,3 C 73 % 1008,8 hPa 0,0 l/m 0,0 km/h (0 Bft) W-NW 292 0,9 C 5,3 C
02.04.2012 23:12 5,2 C 74 % 1008,8 hPa 0,0 l/m 0,0 km/h (0 Bft) W-NW 292 1,0 C 5,2 C
02.04.2012 23:17 5,1 C 74 % 1008,9 hPa 0,0 l/m 0,0 km/h (0 Bft) W-NW 292 0,9 C 5,1 C
02.04.2012 23:22 5,1 C 74 % 1008,8 hPa 0,0 l/m 0,0 km/h (0 Bft) W-NW 292 0,9 C 5,1 C
02.04.2012 23:27 5,1 C 75 % 1008,8 hPa 0,0 l/m 0,0 km/h (0 Bft) W-NW 292 1,0 C 5,1 C
02.04.2012 23:32 5,1 C 75 % 1008,6 hPa 0,0 l/m 0,0 km/h (0 Bft) W-NW 292 1,0 C 5,1 C
02.04.2012 23:37 5,0 C 75 % 1008,8 hPa 0,0 l/m 0,0 km/h (0 Bft) W-NW 292 0,9 C 5,0 C
02.04.2012 23:42 5,0 C 75 % 1008,8 hPa 0,0 l/m 0,0 km/h (0 Bft) W-NW 292 0,9 C 5,0 C
02.04.2012 23:47 5,0 C 75 % 1008,7 hPa 0,0 l/m 0,0 km/h (0 Bft) W-NW 292 0,9 C 5,0 C
02.04.2012 23:52 5,0 C 75 % 1008,8 hPa 0,0 l/m 0,0 km/h (0 Bft) W-NW 292 0,9 C 5,0 C
02.04.2012 23:57 5,0 C 75 % 1008,8 hPa 0,0 l/m 0,0 km/h (0 Bft) W-NW 292 0,9 C 5,0 C
_ Min-Zeit 07:27 15:27 01:57 - 19:07 - - 12:27 07:02
Minimum _ 4,1 C 57 % 1006,0 hPa - 0,0 km/h (0 Bft) - - -1,1 C 0,0 C
_ Max-Zeit 16:07 03:32 13:47 00:12 04:52 - - 03:47 15:47
Maximum _ 8,4 C 88 % 1010,3 hPa 0,5 l/m 35,6 km/h
NW (5 Bft)
- - 4,1 C 8,1 C
Durchschnitt _ 6,2 C 70 % 1008,5 hPa #2,1 l/m 10,5 km/h (2 Bft) W-NW - 1,0 C 4,2 C
(c) by David Heller